sensor_id;sensor_type;location;lat;lon;timestamp;pressure;altitude;pressure_sealevel;temperature;humidity
81511;BME280;70931;48.796;8.440;2024-03-23T00:54:27;96471.00;;;10.48;76.09
81511;BME280;70931;48.796;8.440;2024-03-23T00:56:52;96453.44;;;10.17;77.36
81511;BME280;70931;48.796;8.440;2024-03-23T00:59:17;96459.13;;;10.00;78.33
81511;BME280;70931;48.796;8.440;2024-03-23T01:01:43;96458.13;;;10.51;77.11
81511;BME280;70931;48.796;8.440;2024-03-23T01:04:08;96442.28;;;10.64;76.40
81511;BME280;70931;48.796;8.440;2024-03-23T01:06:33;96438.34;;;10.81;75.17
81511;BME280;70931;48.796;8.440;2024-03-23T01:08:58;96416.56;;;10.78;75.09
81511;BME280;70931;48.796;8.440;2024-03-23T01:11:23;96435.88;;;11.08;74.98
81511;BME280;70931;48.796;8.440;2024-03-23T01:13:49;96437.75;;;11.14;74.69
81511;BME280;70931;48.796;8.440;2024-03-23T01:16:14;96436.03;;;11.27;73.91
81511;BME280;70931;48.796;8.440;2024-03-23T01:18:39;96443.22;;;11.27;74.19
81511;BME280;70931;48.796;8.440;2024-03-23T01:21:04;96419.75;;;11.16;74.40
81511;BME280;70931;48.796;8.440;2024-03-23T01:23:30;96427.47;;;11.11;75.01
81511;BME280;70931;48.796;8.440;2024-03-23T01:25:55;96416.91;;;11.24;74.57
81511;BME280;70931;48.796;8.440;2024-03-23T01:28:21;96420.34;;;11.18;74.60
81511;BME280;70931;48.796;8.440;2024-03-23T01:30:47;96411.44;;;11.32;74.23
81511;BME280;70931;48.796;8.440;2024-03-23T01:33:12;96409.00;;;11.37;74.30
81511;BME280;70931;48.796;8.440;2024-03-23T01:35:38;96405.47;;;11.30;73.86
81511;BME280;70931;48.796;8.440;2024-03-23T01:38:03;96401.25;;;11.42;73.32
81511;BME280;70931;48.796;8.440;2024-03-23T01:40:28;96391.34;;;11.36;72.92
81511;BME280;70931;48.796;8.440;2024-03-23T01:43:06;96397.75;;;11.48;73.03
81511;BME280;70931;48.796;8.440;2024-03-23T01:45:32;96388.84;;;11.69;71.65
81511;BME280;70931;48.796;8.440;2024-03-23T01:47:58;96385.25;;;11.49;72.19
81511;BME280;70931;48.796;8.440;2024-03-23T01:50:23;96391.19;;;11.78;69.80
81511;BME280;70931;48.796;8.440;2024-03-23T01:52:49;96377.03;;;11.91;70.35
81511;BME280;70931;48.796;8.440;2024-03-23T01:55:15;96399.16;;;12.26;66.62
81511;BME280;70931;48.796;8.440;2024-03-23T01:57:40;96388.16;;;12.81;65.26
81511;BME280;70931;48.796;8.440;2024-03-23T02:00:06;96389.63;;;13.17;64.76
81511;BME280;70931;48.796;8.440;2024-03-23T02:02:32;96389.00;;;13.14;66.08
81511;BME280;70931;48.796;8.440;2024-03-23T02:04:57;96383.03;;;13.12;65.94
81511;BME280;70931;48.796;8.440;2024-03-23T02:07:22;96368.81;;;13.25;62.96
81511;BME280;70931;48.796;8.440;2024-03-23T02:09:47;96380.09;;;13.40;62.22
81511;BME280;70931;48.796;8.440;2024-03-23T02:12:13;96366.06;;;13.58;61.17
81511;BME280;70931;48.796;8.440;2024-03-23T02:14:38;96368.94;;;13.63;60.71
81511;BME280;70931;48.796;8.440;2024-03-23T02:17:03;96384.53;;;13.86;60.05
81511;BME280;70931;48.796;8.440;2024-03-23T02:19:29;96372.94;;;13.98;59.67
81511;BME280;70931;48.796;8.440;2024-03-23T02:21:54;96377.41;;;14.11;59.82
81511;BME280;70931;48.796;8.440;2024-03-23T02:24:19;96375.00;;;13.96;59.43
81511;BME280;70931;48.796;8.440;2024-03-23T02:26:44;96376.00;;;14.08;59.60
81511;BME280;70931;48.796;8.440;2024-03-23T02:29:09;96365.69;;;14.05;59.56
81511;BME280;70931;48.796;8.440;2024-03-23T02:31:35;96375.75;;;14.10;58.80
81511;BME280;70931;48.796;8.440;2024-03-23T02:34:01;96356.72;;;14.24;59.07
81511;BME280;70931;48.796;8.440;2024-03-23T02:36:26;96350.22;;;14.01;59.79
81511;BME280;70931;48.796;8.440;2024-03-23T02:38:51;96337.47;;;13.96;60.07
81511;BME280;70931;48.796;8.440;2024-03-23T02:41:17;96343.13;;;14.19;59.84
81511;BME280;70931;48.796;8.440;2024-03-23T02:43:42;96330.19;;;14.10;59.11
81511;BME280;70931;48.796;8.440;2024-03-23T02:46:07;96348.44;;;13.88;59.74
81511;BME280;70931;48.796;8.440;2024-03-23T02:48:32;96340.63;;;14.24;59.47
81511;BME280;70931;48.796;8.440;2024-03-23T02:50:57;96348.00;;;14.36;59.53
81511;BME280;70931;48.796;8.440;2024-03-23T02:53:23;96326.91;;;14.08;60.24
81511;BME280;70931;48.796;8.440;2024-03-23T02:55:48;96329.13;;;14.17;59.64
81511;BME280;70931;48.796;8.440;2024-03-23T02:58:14;96337.09;;;14.31;59.30
81511;BME280;70931;48.796;8.440;2024-03-23T03:00:39;96333.13;;;14.02;60.55
81511;BME280;70931;48.796;8.440;2024-03-23T03:03:04;96350.28;;;14.32;59.71
81511;BME280;70931;48.796;8.440;2024-03-23T03:05:30;96307.44;;;13.81;61.12
81511;BME280;70931;48.796;8.440;2024-03-23T03:07:55;96339.31;;;14.02;60.05
81511;BME280;70931;48.796;8.440;2024-03-23T03:10:20;96328.63;;;13.89;61.16
81511;BME280;70931;48.796;8.440;2024-03-23T03:12:45;96336.66;;;13.89;60.78
81511;BME280;70931;48.796;8.440;2024-03-23T03:15:11;96314.69;;;14.12;60.05
81511;BME280;70931;48.796;8.440;2024-03-23T03:17:36;96320.47;;;14.15;60.30
81511;BME280;70931;48.796;8.440;2024-03-23T03:20:01;96303.16;;;14.11;60.08
81511;BME280;70931;48.796;8.440;2024-03-23T03:22:26;96310.97;;;14.13;60.21
81511;BME280;70931;48.796;8.440;2024-03-23T03:24:52;96291.47;;;13.99;60.54
81511;BME280;70931;48.796;8.440;2024-03-23T03:27:17;96279.34;;;13.97;60.96
81511;BME280;70931;48.796;8.440;2024-03-23T03:29:42;96284.16;;;14.13;60.10
81511;BME280;70931;48.796;8.440;2024-03-23T03:32:07;96273.91;;;14.03;60.36
81511;BME280;70931;48.796;8.440;2024-03-23T03:34:33;96282.91;;;14.15;60.63
81511;BME280;70931;48.796;8.440;2024-03-23T03:36:58;96302.81;;;14.01;60.63
81511;BME280;70931;48.796;8.440;2024-03-23T03:39:24;96326.03;;;13.76;61.56
81511;BME280;70931;48.796;8.440;2024-03-23T03:41:49;96326.13;;;13.50;62.89
81511;BME280;70931;48.796;8.440;2024-03-23T03:44:15;96344.69;;;13.32;64.33
81511;BME280;70931;48.796;8.440;2024-03-23T03:46:40;96322.47;;;12.98;65.95
81511;BME280;70931;48.796;8.440;2024-03-23T03:49:05;96304.75;;;12.06;70.03
81511;BME280;70931;48.796;8.440;2024-03-23T03:51:31;96372.16;;;12.01;73.36
81511;BME280;70931;48.796;8.440;2024-03-23T03:53:56;96355.66;;;11.84;74.20
81511;BME280;70931;48.796;8.440;2024-03-23T03:56:21;96363.06;;;11.89;75.64
81511;BME280;70931;48.796;8.440;2024-03-23T03:58:47;96379.31;;;11.87;75.73
81511;BME280;70931;48.796;8.440;2024-03-23T04:01:12;96360.53;;;11.74;76.91
81511;BME280;70931;48.796;8.440;2024-03-23T04:03:37;96374.53;;;11.76;76.86
81511;BME280;70931;48.796;8.440;2024-03-23T04:06:03;96347.16;;;11.68;76.72
81511;BME280;70931;48.796;8.440;2024-03-23T04:08:28;96357.88;;;11.40;75.01
81511;BME280;70931;48.796;8.440;2024-03-23T04:10:53;96315.56;;;11.37;75.84
81511;BME280;70931;48.796;8.440;2024-03-23T04:13:18;96343.50;;;11.41;75.72
81511;BME280;70931;48.796;8.440;2024-03-23T04:15:43;96362.44;;;11.46;76.34
81511;BME280;70931;48.796;8.440;2024-03-23T04:18:09;96356.63;;;11.36;75.50
81511;BME280;70931;48.796;8.440;2024-03-23T04:20:34;96358.91;;;11.39;74.51
81511;BME280;70931;48.796;8.440;2024-03-23T04:22:59;96361.50;;;11.26;74.53
81511;BME280;70931;48.796;8.440;2024-03-23T04:25:25;96354.16;;;11.34;76.35
81511;BME280;70931;48.796;8.440;2024-03-23T04:27:50;96347.38;;;10.76;78.37
81511;BME280;70931;48.796;8.440;2024-03-23T04:30:15;96374.31;;;10.81;79.98
81511;BME280;70931;48.796;8.440;2024-03-23T04:32:41;96332.69;;;10.59;79.08
81511;BME280;70931;48.796;8.440;2024-03-23T04:35:06;96350.44;;;10.73;79.32
81511;BME280;70931;48.796;8.440;2024-03-23T04:37:32;96351.84;;;10.42;81.30
81511;BME280;70931;48.796;8.440;2024-03-23T04:39:57;96346.75;;;10.25;81.61
81511;BME280;70931;48.796;8.440;2024-03-23T04:42:22;96367.63;;;10.64;80.64
81511;BME280;70931;48.796;8.440;2024-03-23T04:44:48;96352.03;;;10.68;81.04
81511;BME280;70931;48.796;8.440;2024-03-23T04:47:13;96328.16;;;10.32;81.46
81511;BME280;70931;48.796;8.440;2024-03-23T04:49:38;96363.56;;;10.26;80.63
81511;BME280;70931;48.796;8.440;2024-03-23T04:52:04;96389.00;;;10.28;79.98
81511;BME280;70931;48.796;8.440;2024-03-23T04:54:30;96373.19;;;9.91;80.07
81511;BME280;70931;48.796;8.440;2024-03-23T04:56:56;96387.75;;;10.10;79.90
81511;BME280;70931;48.796;8.440;2024-03-23T04:59:21;96419.81;;;10.02;80.35
81511;BME280;70931;48.796;8.440;2024-03-23T05:01:46;96397.00;;;9.93;80.14
81511;BME280;70931;48.796;8.440;2024-03-23T05:04:11;96416.00;;;9.90;80.67
81511;BME280;70931;48.796;8.440;2024-03-23T05:06:36;96404.97;;;9.93;80.78
81511;BME280;70931;48.796;8.440;2024-03-23T05:09:02;96416.53;;;9.85;81.51
81511;BME280;70931;48.796;8.440;2024-03-23T05:11:27;96411.41;;;9.84;81.55
81511;BME280;70931;48.796;8.440;2024-03-23T05:13:53;96408.66;;;9.62;82.47
81511;BME280;70931;48.796;8.440;2024-03-23T05:16:18;96418.38;;;9.85;82.90
81511;BME280;70931;48.796;8.440;2024-03-23T05:18:43;96427.66;;;9.45;82.24
81511;BME280;70931;48.796;8.440;2024-03-23T05:21:08;96429.50;;;9.44;81.83
81511;BME280;70931;48.796;8.440;2024-03-23T05:23:33;96446.28;;;9.30;81.80
81511;BME280;70931;48.796;8.440;2024-03-23T05:25:59;96442.16;;;9.28;80.43
81511;BME280;70931;48.796;8.440;2024-03-23T05:28:24;96452.72;;;9.21;79.85
81511;BME280;70931;48.796;8.440;2024-03-23T05:30:53;96445.56;;;8.84;79.25
81511;BME280;70931;48.796;8.440;2024-03-23T05:33:21;96449.53;;;8.88;80.55
81511;BME280;70931;48.796;8.440;2024-03-23T05:35:46;96469.88;;;8.96;81.39
81511;BME280;70931;48.796;8.440;2024-03-23T05:38:12;96466.38;;;8.81;81.50
81511;BME280;70931;48.796;8.440;2024-03-23T05:40:37;96474.84;;;8.99;80.98
81511;BME280;70931;48.796;8.440;2024-03-23T05:43:03;96489.03;;;8.91;81.89
81511;BME280;70931;48.796;8.440;2024-03-23T05:45:29;96473.81;;;8.85;77.92
81511;BME280;70931;48.796;8.440;2024-03-23T05:47:54;96463.53;;;8.82;81.73
81511;BME280;70931;48.796;8.440;2024-03-23T05:50:19;96464.44;;;8.75;80.03
81511;BME280;70931;48.796;8.440;2024-03-23T05:52:44;96492.09;;;8.35;77.99
81511;BME280;70931;48.796;8.440;2024-03-23T05:55:10;96473.50;;;8.35;79.89
81511;BME280;70931;48.796;8.440;2024-03-23T05:57:35;96493.19;;;8.48;80.54
81511;BME280;70931;48.796;8.440;2024-03-23T06:00:00;96500.50;;;8.46;81.71
81511;BME280;70931;48.796;8.440;2024-03-23T06:02:25;96497.41;;;8.35;80.63
81511;BME280;70931;48.796;8.440;2024-03-23T06:04:50;96504.50;;;8.42;80.52
81511;BME280;70931;48.796;8.440;2024-03-23T06:07:16;96521.09;;;8.44;80.96
81511;BME280;70931;48.796;8.440;2024-03-23T06:09:41;96492.63;;;8.22;82.78
81511;BME280;70931;48.796;8.440;2024-03-23T06:12:07;96509.13;;;8.48;82.42
81511;BME280;70931;48.796;8.440;2024-03-23T06:14:32;96474.69;;;8.24;80.25
81511;BME280;70931;48.796;8.440;2024-03-23T06:16:58;96507.50;;;8.39;80.85
81511;BME280;70931;48.796;8.440;2024-03-23T06:19:23;96516.56;;;8.53;78.54
81511;BME280;70931;48.796;8.440;2024-03-23T06:21:48;96503.09;;;8.54;80.85
81511;BME280;70931;48.796;8.440;2024-03-23T06:24:14;96521.50;;;8.25;81.11
81511;BME280;70931;48.796;8.440;2024-03-23T06:26:39;96531.75;;;8.36;79.54
81511;BME280;70931;48.796;8.440;2024-03-23T06:29:04;96530.66;;;8.23;82.33
81511;BME280;70931;48.796;8.440;2024-03-23T06:31:29;96552.72;;;8.23;82.40
81511;BME280;70931;48.796;8.440;2024-03-23T06:33:55;96555.13;;;8.02;81.69
81511;BME280;70931;48.796;8.440;2024-03-23T06:36:20;96559.09;;;7.98;83.15
81511;BME280;70931;48.796;8.440;2024-03-23T06:38:46;96595.81;;;7.94;81.28
81511;BME280;70931;48.796;8.440;2024-03-23T06:41:11;96576.75;;;7.83;81.57
81511;BME280;70931;48.796;8.440;2024-03-23T06:43:36;96590.69;;;7.85;80.64
81511;BME280;70931;48.796;8.440;2024-03-23T06:46:02;96577.44;;;7.77;80.65
81511;BME280;70931;48.796;8.440;2024-03-23T06:48:28;96593.84;;;7.72;82.50
81511;BME280;70931;48.796;8.440;2024-03-23T06:50:56;96580.41;;;7.82;81.52
81511;BME280;70931;48.796;8.440;2024-03-23T06:53:22;96603.75;;;8.02;81.65
81511;BME280;70931;48.796;8.440;2024-03-23T06:55:52;96594.31;;;8.00;82.20
81511;BME280;70931;48.796;8.440;2024-03-23T06:58:19;96594.03;;;7.71;81.11
81511;BME280;70931;48.796;8.440;2024-03-23T07:00:44;96600.63;;;7.91;81.40
81511;BME280;70931;48.796;8.440;2024-03-23T07:03:10;96600.81;;;7.81;83.14
81511;BME280;70931;48.796;8.440;2024-03-23T07:05:35;96597.97;;;7.91;82.34
81511;BME280;70931;48.796;8.440;2024-03-23T07:08:00;96571.31;;;7.68;81.42
81511;BME280;70931;48.796;8.440;2024-03-23T07:10:25;96610.25;;;7.84;80.54
81511;BME280;70931;48.796;8.440;2024-03-23T07:12:51;96615.53;;;8.00;81.16
81511;BME280;70931;48.796;8.440;2024-03-23T07:15:16;96610.41;;;7.90;83.26
81511;BME280;70931;48.796;8.440;2024-03-23T07:17:41;96627.38;;;7.73;82.27
81511;BME280;70931;48.796;8.440;2024-03-23T07:20:06;96645.09;;;7.73;81.79
81511;BME280;70931;48.796;8.440;2024-03-23T07:22:32;96647.09;;;7.71;80.87
81511;BME280;70931;48.796;8.440;2024-03-23T07:25:00;96658.88;;;8.00;81.86
81511;BME280;70931;48.796;8.440;2024-03-23T07:27:26;96667.97;;;8.06;81.89
81511;BME280;70931;48.796;8.440;2024-03-23T07:29:52;96674.47;;;7.71;81.13
81511;BME280;70931;48.796;8.440;2024-03-23T07:32:17;96697.84;;;7.84;82.99
81511;BME280;70931;48.796;8.440;2024-03-23T07:34:43;96691.22;;;7.88;81.33
81511;BME280;70931;48.796;8.440;2024-03-23T07:37:08;96705.66;;;7.77;81.05
81511;BME280;70931;48.796;8.440;2024-03-23T07:39:33;96710.47;;;7.74;81.65
81511;BME280;70931;48.796;8.440;2024-03-23T07:41:58;96730.38;;;7.70;81.64
81511;BME280;70931;48.796;8.440;2024-03-23T07:44:24;96719.75;;;7.70;81.09
81511;BME280;70931;48.796;8.440;2024-03-23T07:46:49;96717.09;;;7.62;79.81
81511;BME280;70931;48.796;8.440;2024-03-23T07:49:14;96726.06;;;7.93;80.39
81511;BME280;70931;48.796;8.440;2024-03-23T07:51:39;96719.78;;;7.86;80.76
81511;BME280;70931;48.796;8.440;2024-03-23T07:54:04;96764.72;;;7.71;79.94
81511;BME280;70931;48.796;8.440;2024-03-23T07:56:30;96761.88;;;7.81;78.00
81511;BME280;70931;48.796;8.440;2024-03-23T07:58:55;96761.38;;;7.61;79.19
81511;BME280;70931;48.796;8.440;2024-03-23T08:01:20;96749.91;;;7.53;78.84
81511;BME280;70931;48.796;8.440;2024-03-23T08:03:46;96758.00;;;7.35;80.16
81511;BME280;70931;48.796;8.440;2024-03-23T08:08:38;96762.19;;;7.37;78.63
81511;BME280;70931;48.796;8.440;2024-03-23T08:11:04;96779.81;;;7.71;78.30
81511;BME280;70931;48.796;8.440;2024-03-23T08:13:30;96762.56;;;7.75;78.15
81511;BME280;70931;48.796;8.440;2024-03-23T08:15:57;96757.91;;;7.93;77.11
81511;BME280;70931;48.796;8.440;2024-03-23T08:18:22;96776.31;;;7.70;77.23
81511;BME280;70931;48.796;8.440;2024-03-23T08:20:55;96777.81;;;7.73;75.55
81511;BME280;70931;48.796;8.440;2024-03-23T08:23:21;96791.91;;;7.65;77.60
81511;BME280;70931;48.796;8.440;2024-03-23T08:25:46;96784.41;;;7.44;75.74
81511;BME280;70931;48.796;8.440;2024-03-23T08:28:11;96755.97;;;7.21;76.41
81511;BME280;70931;48.796;8.440;2024-03-23T08:30:36;96785.69;;;7.40;77.05
81511;BME280;70931;48.796;8.440;2024-03-23T08:33:01;96810.91;;;7.36;79.04
81511;BME280;70931;48.796;8.440;2024-03-23T08:35:27;96802.84;;;7.54;77.92
81511;BME280;70931;48.796;8.440;2024-03-23T08:37:52;96802.97;;;7.53;77.39
81511;BME280;70931;48.796;8.440;2024-03-23T08:40:17;96812.28;;;7.57;75.87
81511;BME280;70931;48.796;8.440;2024-03-23T08:42:42;96817.44;;;7.66;75.45
81511;BME280;70931;48.796;8.440;2024-03-23T08:45:08;96805.38;;;7.80;75.93
81511;BME280;70931;48.796;8.440;2024-03-23T08:47:34;96812.22;;;8.15;75.01
81511;BME280;70931;48.796;8.440;2024-03-23T08:49:59;96809.06;;;8.27;72.54
81511;BME280;70931;48.796;8.440;2024-03-23T08:52:25;96817.19;;;8.42;74.18
81511;BME280;70931;48.796;8.440;2024-03-23T08:54:50;96817.69;;;8.45;73.82
81511;BME280;70931;48.796;8.440;2024-03-23T08:57:15;96811.03;;;8.17;71.59
81511;BME280;70931;48.796;8.440;2024-03-23T08:59:40;96818.66;;;8.04;69.81
81511;BME280;70931;48.796;8.440;2024-03-23T09:02:05;96831.28;;;7.86;68.15
81511;BME280;70931;48.796;8.440;2024-03-23T09:04:31;96809.97;;;7.54;68.75
81511;BME280;70931;48.796;8.440;2024-03-23T09:06:56;96820.66;;;7.86;70.91
81511;BME280;70931;48.796;8.440;2024-03-23T09:09:21;96829.94;;;7.90;70.55
81511;BME280;70931;48.796;8.440;2024-03-23T09:11:47;96831.59;;;7.91;68.95
81511;BME280;70931;48.796;8.440;2024-03-23T09:14:12;96825.63;;;8.05;69.27
81511;BME280;70931;48.796;8.440;2024-03-23T09:16:37;96831.59;;;8.07;69.93
81511;BME280;70931;48.796;8.440;2024-03-23T09:19:02;96837.81;;;8.32;69.42
81511;BME280;70931;48.796;8.440;2024-03-23T09:21:27;96839.13;;;8.28;67.51
81511;BME280;70931;48.796;8.440;2024-03-23T09:23:53;96844.56;;;8.58;68.69
81511;BME280;70931;48.796;8.440;2024-03-23T09:26:18;96837.78;;;8.72;67.56
81511;BME280;70931;48.796;8.440;2024-03-23T09:28:43;96849.22;;;8.65;66.51
81511;BME280;70931;48.796;8.440;2024-03-23T09:31:09;96849.91;;;8.42;63.37
81511;BME280;70931;48.796;8.440;2024-03-23T09:33:35;96838.28;;;8.51;65.99
81511;BME280;70931;48.796;8.440;2024-03-23T09:36:04;96850.91;;;8.57;64.98
81511;BME280;70931;48.796;8.440;2024-03-23T09:38:29;96847.25;;;8.34;64.31
81511;BME280;70931;48.796;8.440;2024-03-23T09:40:55;96865.81;;;8.10;65.40
81511;BME280;70931;48.796;8.440;2024-03-23T09:43:20;96831.16;;;8.28;64.69
81511;BME280;70931;48.796;8.440;2024-03-23T09:45:46;96828.63;;;8.58;65.20
81511;BME280;70931;48.796;8.440;2024-03-23T09:48:12;96806.09;;;8.46;65.80
81511;BME280;70931;48.796;8.440;2024-03-23T09:50:41;96817.63;;;8.86;65.10
81511;BME280;70931;48.796;8.440;2024-03-23T09:53:07;96813.91;;;9.03;65.15
81511;BME280;70931;48.796;8.440;2024-03-23T09:55:33;96813.16;;;8.70;62.08
81511;BME280;70931;48.796;8.440;2024-03-23T09:57:59;96799.13;;;8.37;63.75
81511;BME280;70931;48.796;8.440;2024-03-23T10:00:24;96824.31;;;8.49;63.47
81511;BME280;70931;48.796;8.440;2024-03-23T10:02:50;96851.91;;;8.40;64.29
81511;BME280;70931;48.796;8.440;2024-03-23T10:05:22;96880.69;;;7.95;71.03
81511;BME280;70931;48.796;8.440;2024-03-23T10:07:49;96938.81;;;6.97;74.60
81511;BME280;70931;48.796;8.440;2024-03-23T10:10:15;96956.81;;;6.50;77.02
81511;BME280;70931;48.796;8.440;2024-03-23T10:12:49;96964.66;;;5.52;80.56
81511;BME280;70931;48.796;8.440;2024-03-23T10:15:19;96946.63;;;5.38;81.49
81511;BME280;70931;48.796;8.440;2024-03-23T10:17:44;96947.38;;;5.57;80.11
81511;BME280;70931;48.796;8.440;2024-03-23T10:20:09;96918.28;;;5.30;80.66
81511;BME280;70931;48.796;8.440;2024-03-23T10:22:37;96928.50;;;5.43;83.87
81511;BME280;70931;48.796;8.440;2024-03-23T10:25:08;96930.47;;;5.41;80.88
81511;BME280;70931;48.796;8.440;2024-03-23T10:27:33;96932.34;;;5.58;82.94
81511;BME280;70931;48.796;8.440;2024-03-23T10:30:07;96934.59;;;6.07;83.20
81511;BME280;70931;48.796;8.440;2024-03-23T10:32:33;96931.03;;;6.16;81.95
81511;BME280;70931;48.796;8.440;2024-03-23T10:35:14;96928.59;;;6.41;80.23
81511;BME280;70931;48.796;8.440;2024-03-23T10:37:39;96925.97;;;6.41;80.55
81511;BME280;70931;48.796;8.440;2024-03-23T10:40:05;96929.66;;;6.65;80.47
81511;BME280;70931;48.796;8.440;2024-03-23T10:42:32;96890.81;;;6.74;81.12
81511;BME280;70931;48.796;8.440;2024-03-23T10:44:58;96902.06;;;7.02;78.65
81511;BME280;70931;48.796;8.440;2024-03-23T10:47:23;96920.31;;;7.38;79.14
81511;BME280;70931;48.796;8.440;2024-03-23T10:49:49;96923.31;;;7.43;78.26
81511;BME280;70931;48.796;8.440;2024-03-23T10:52:14;96916.03;;;7.37;78.07
81511;BME280;70931;48.796;8.440;2024-03-23T10:54:41;96915.13;;;7.55;77.70
81511;BME280;70931;48.796;8.440;2024-03-23T10:57:21;96913.44;;;7.54;77.94
81511;BME280;70931;48.796;8.440;2024-03-23T10:59:48;96912.09;;;7.50;77.90
81511;BME280;70931;48.796;8.440;2024-03-23T11:02:19;96908.16;;;7.62;77.33
81511;BME280;70931;48.796;8.440;2024-03-23T11:04:45;96898.78;;;7.41;77.25
81511;BME280;70931;48.796;8.440;2024-03-23T11:09:51;96891.38;;;8.19;76.69
81511;BME280;70931;48.796;8.440;2024-03-23T11:14:48;96889.69;;;8.10;73.75
81511;BME280;70931;48.796;8.440;2024-03-23T11:17:18;96888.91;;;8.18;74.05
81511;BME280;70931;48.796;8.440;2024-03-23T11:19:43;96872.78;;;8.03;76.89
81511;BME280;70931;48.796;8.440;2024-03-23T11:22:08;96874.72;;;7.77;75.36
81511;BME280;70931;48.796;8.440;2024-03-23T11:24:33;96891.78;;;7.74;76.05
81511;BME280;70931;48.796;8.440;2024-03-23T11:26:59;96881.09;;;7.50;75.01
81511;BME280;70931;48.796;8.440;2024-03-23T11:29:25;96879.69;;;7.80;75.74
81511;BME280;70931;48.796;8.440;2024-03-23T11:31:51;96874.59;;;7.94;74.18
81511;BME280;70931;48.796;8.440;2024-03-23T11:34:20;96873.03;;;7.76;73.85
81511;BME280;70931;48.796;8.440;2024-03-23T11:36:46;96868.25;;;7.95;76.85
81511;BME280;70931;48.796;8.440;2024-03-23T11:39:17;96868.94;;;7.97;77.17
81511;BME280;70931;48.796;8.440;2024-03-23T11:41:56;96848.19;;;8.01;74.80
81511;BME280;70931;48.796;8.440;2024-03-23T11:44:23;96869.41;;;7.93;74.41
81511;BME280;70931;48.796;8.440;2024-03-23T11:46:49;96874.09;;;7.99;73.35
81511;BME280;70931;48.796;8.440;2024-03-23T11:49:24;96872.41;;;7.98;72.65
81511;BME280;70931;48.796;8.440;2024-03-23T11:51:51;96874.09;;;7.99;74.58
81511;BME280;70931;48.796;8.440;2024-03-23T11:54:20;96863.78;;;7.96;74.25
81511;BME280;70931;48.796;8.440;2024-03-23T11:59:34;96850.81;;;7.77;74.83
81511;BME280;70931;48.796;8.440;2024-03-23T12:02:00;96824.22;;;7.53;73.75
81511;BME280;70931;48.796;8.440;2024-03-23T12:04:28;96847.44;;;7.51;74.65
81511;BME280;70931;48.796;8.440;2024-03-23T12:09:38;96860.06;;;7.65;73.66
81511;BME280;70931;48.796;8.440;2024-03-23T12:14:32;96849.22;;;8.16;76.17
81511;BME280;70931;48.796;8.440;2024-03-23T12:17:10;96838.56;;;8.73;73.33
81511;BME280;70931;48.796;8.440;2024-03-23T12:19:36;96800.97;;;9.00;72.39
81511;BME280;70931;48.796;8.440;2024-03-23T12:22:03;96836.03;;;9.73;67.36
81511;BME280;70931;48.796;8.440;2024-03-23T12:24:28;96797.63;;;10.44;65.69
81511;BME280;70931;48.796;8.440;2024-03-23T12:26:53;96818.28;;;11.23;65.99
81511;BME280;70931;48.796;8.440;2024-03-23T12:29:19;96814.28;;;11.77;61.23
81511;BME280;70931;48.796;8.440;2024-03-23T12:31:44;96808.19;;;12.47;61.93
81511;BME280;70931;48.796;8.440;2024-03-23T12:34:09;96814.38;;;12.47;59.52
81511;BME280;70931;48.796;8.440;2024-03-23T12:36:34;96820.00;;;12.10;56.67
81511;BME280;70931;48.796;8.440;2024-03-23T12:38:59;96799.78;;;12.78;55.82
81511;BME280;70931;48.796;8.440;2024-03-23T12:41:25;96790.53;;;12.74;54.31
81511;BME280;70931;48.796;8.440;2024-03-23T12:43:50;96811.72;;;13.31;56.68
81511;BME280;70931;48.796;8.440;2024-03-23T12:46:15;96804.81;;;13.15;55.14
81511;BME280;70931;48.796;8.440;2024-03-23T12:48:40;96810.31;;;12.79;55.28
81511;BME280;70931;48.796;8.440;2024-03-23T12:51:06;96806.91;;;12.43;55.15
81511;BME280;70931;48.796;8.440;2024-03-23T12:53:31;96816.72;;;12.15;55.37
81511;BME280;70931;48.796;8.440;2024-03-23T12:55:56;96813.38;;;11.56;53.09
81511;BME280;70931;48.796;8.440;2024-03-23T12:58:21;96800.53;;;11.30;56.82
81511;BME280;70931;48.796;8.440;2024-03-23T13:00:46;96798.28;;;11.48;56.77
81511;BME280;70931;48.796;8.440;2024-03-23T13:03:13;96779.28;;;10.78;55.22
81511;BME280;70931;48.796;8.440;2024-03-23T13:05:38;96775.94;;;11.34;52.79
81511;BME280;70931;48.796;8.440;2024-03-23T13:08:04;96765.38;;;11.12;56.53
81511;BME280;70931;48.796;8.440;2024-03-23T13:10:29;96776.09;;;10.45;56.22
81511;BME280;70931;48.796;8.440;2024-03-23T13:12:54;96779.75;;;10.07;58.12
81511;BME280;70931;48.796;8.440;2024-03-23T13:15:19;96772.25;;;9.57;61.73
81511;BME280;70931;48.796;8.440;2024-03-23T13:17:45;96775.53;;;9.36;64.62
81511;BME280;70931;48.796;8.440;2024-03-23T13:20:10;96779.34;;;9.03;68.58
81511;BME280;70931;48.796;8.440;2024-03-23T13:22:36;96785.00;;;9.00;68.66
81511;BME280;70931;48.796;8.440;2024-03-23T13:25:01;96797.72;;;8.74;69.34
81511;BME280;70931;48.796;8.440;2024-03-23T13:27:26;96789.56;;;8.67;72.87
81511;BME280;70931;48.796;8.440;2024-03-23T13:29:51;96811.38;;;8.22;69.66
81511;BME280;70931;48.796;8.440;2024-03-23T13:32:16;96805.03;;;8.15;69.60
81511;BME280;70931;48.796;8.440;2024-03-23T13:34:42;96831.97;;;8.20;69.60
81511;BME280;70931;48.796;8.440;2024-03-23T13:37:07;96831.72;;;7.73;70.45
81511;BME280;70931;48.796;8.440;2024-03-23T13:39:32;96859.16;;;7.40;72.12
81511;BME280;70931;48.796;8.440;2024-03-23T13:41:57;96856.88;;;7.53;73.26
81511;BME280;70931;48.796;8.440;2024-03-23T13:44:23;96833.38;;;7.16;73.23
81511;BME280;70931;48.796;8.440;2024-03-23T13:46:48;96872.22;;;7.33;71.34
81511;BME280;70931;48.796;8.440;2024-03-23T13:51:52;96858.22;;;7.57;71.09
81511;BME280;70931;48.796;8.440;2024-03-23T13:54:18;96839.75;;;7.39;69.03
81511;BME280;70931;48.796;8.440;2024-03-23T13:56:43;96844.97;;;7.15;68.08
81511;BME280;70931;48.796;8.440;2024-03-23T13:59:08;96804.84;;;7.10;67.22
81511;BME280;70931;48.796;8.440;2024-03-23T14:01:33;96820.53;;;7.37;66.49
81511;BME280;70931;48.796;8.440;2024-03-23T14:03:59;96813.84;;;8.08;67.16
81511;BME280;70931;48.796;8.440;2024-03-23T14:06:24;96803.84;;;8.82;67.93
81511;BME280;70931;48.796;8.440;2024-03-23T14:08:49;96777.09;;;8.76;61.50
81511;BME280;70931;48.796;8.440;2024-03-23T14:11:14;96776.13;;;8.69;60.21